sensor_id;sensor_type;location;lat;lon;timestamp;P1;durP1;ratioP1;P2;durP2;ratioP2
19446;SDS011;9862;49.462;11.054;2023-02-01T00:02:25;9.00;;;4.97;;
19446;SDS011;9862;49.462;11.054;2023-02-01T00:04:52;5.55;;;4.05;;
19446;SDS011;9862;49.462;11.054;2023-02-01T00:07:20;7.75;;;4.90;;
19446;SDS011;9862;49.462;11.054;2023-02-01T00:09:46;8.27;;;3.92;;
19446;SDS011;9862;49.462;11.054;2023-02-01T00:12:13;6.68;;;4.55;;
19446;SDS011;9862;49.462;11.054;2023-02-01T00:14:40;7.88;;;5.07;;
19446;SDS011;9862;49.462;11.054;2023-02-01T00:17:06;8.90;;;5.47;;
19446;SDS011;9862;49.462;11.054;2023-02-01T00:19:33;9.00;;;5.38;;
19446;SDS011;9862;49.462;11.054;2023-02-01T00:22:01;7.82;;;4.82;;
19446;SDS011;9862;49.462;11.054;2023-02-01T00:24:29;8.32;;;4.95;;
19446;SDS011;9862;49.462;11.054;2023-02-01T00:26:55;8.20;;;4.82;;
19446;SDS011;9862;49.462;11.054;2023-02-01T00:29:22;7.50;;;4.95;;
19446;SDS011;9862;49.462;11.054;2023-02-01T00:31:49;8.50;;;5.10;;
19446;SDS011;9862;49.462;11.054;2023-02-01T00:34:16;13.50;;;6.22;;
19446;SDS011;9862;49.462;11.054;2023-02-01T00:36:43;12.85;;;5.30;;
19446;SDS011;9862;49.462;11.054;2023-02-01T00:39:11;6.70;;;4.07;;
19446;SDS011;9862;49.462;11.054;2023-02-01T00:41:39;7.35;;;4.65;;
19446;SDS011;9862;49.462;11.054;2023-02-01T00:44:06;6.63;;;4.78;;
19446;SDS011;9862;49.462;11.054;2023-02-01T00:46:33;8.38;;;4.78;;
19446;SDS011;9862;49.462;11.054;2023-02-01T00:48:59;6.72;;;4.57;;
19446;SDS011;9862;49.462;11.054;2023-02-01T00:51:28;6.43;;;4.90;;
19446;SDS011;9862;49.462;11.054;2023-02-01T00:53:56;6.85;;;4.72;;
19446;SDS011;9862;49.462;11.054;2023-02-01T00:56:23;10.52;;;4.63;;
19446;SDS011;9862;49.462;11.054;2023-02-01T00:58:51;6.28;;;5.13;;
19446;SDS011;9862;49.462;11.054;2023-02-01T01:01:18;7.30;;;4.53;;
19446;SDS011;9862;49.462;11.054;2023-02-01T01:03:47;8.40;;;5.40;;
19446;SDS011;9862;49.462;11.054;2023-02-01T01:06:16;11.35;;;5.50;;
19446;SDS011;9862;49.462;11.054;2023-02-01T01:08:45;10.05;;;5.72;;
19446;SDS011;9862;49.462;11.054;2023-02-01T01:11:12;6.22;;;4.60;;
19446;SDS011;9862;49.462;11.054;2023-02-01T01:13:41;11.13;;;5.18;;
19446;SDS011;9862;49.462;11.054;2023-02-01T01:16:10;7.60;;;5.50;;
19446;SDS011;9862;49.462;11.054;2023-02-01T01:18:37;6.95;;;4.93;;
19446;SDS011;9862;49.462;11.054;2023-02-01T01:21:04;7.22;;;4.75;;
19446;SDS011;9862;49.462;11.054;2023-02-01T01:23:32;7.18;;;4.95;;
19446;SDS011;9862;49.462;11.054;2023-02-01T01:25:59;10.43;;;5.40;;
19446;SDS011;9862;49.462;11.054;2023-02-01T01:28:26;7.20;;;4.65;;
19446;SDS011;9862;49.462;11.054;2023-02-01T01:30:52;5.38;;;4.65;;
19446;SDS011;9862;49.462;11.054;2023-02-01T01:33:20;8.73;;;5.10;;
19446;SDS011;9862;49.462;11.054;2023-02-01T01:35:47;8.68;;;5.50;;
19446;SDS011;9862;49.462;11.054;2023-02-01T01:38:14;8.35;;;5.10;;
19446;SDS011;9862;49.462;11.054;2023-02-01T01:40:40;8.80;;;4.70;;
19446;SDS011;9862;49.462;11.054;2023-02-01T01:43:12;7.20;;;5.13;;
19446;SDS011;9862;49.462;11.054;2023-02-01T01:45:40;7.30;;;4.88;;
19446;SDS011;9862;49.462;11.054;2023-02-01T01:48:08;10.02;;;5.20;;
19446;SDS011;9862;49.462;11.054;2023-02-01T01:50:44;7.95;;;4.47;;
19446;SDS011;9862;49.462;11.054;2023-02-01T01:53:16;6.95;;;5.18;;
19446;SDS011;9862;49.462;11.054;2023-02-01T01:55:46;10.75;;;4.85;;
19446;SDS011;9862;49.462;11.054;2023-02-01T01:58:15;9.25;;;4.72;;
19446;SDS011;9862;49.462;11.054;2023-02-01T02:00:44;7.88;;;5.15;;
19446;SDS011;9862;49.462;11.054;2023-02-01T02:03:14;6.25;;;4.10;;
19446;SDS011;9862;49.462;11.054;2023-02-01T02:05:43;8.23;;;4.10;;
19446;SDS011;9862;49.462;11.054;2023-02-01T02:08:11;7.10;;;4.78;;
19446;SDS011;9862;49.462;11.054;2023-02-01T02:10:38;9.48;;;5.07;;
19446;SDS011;9862;49.462;11.054;2023-02-01T02:13:22;8.43;;;5.00;;
19446;SDS011;9862;49.462;11.054;2023-02-01T02:15:51;6.78;;;4.45;;
19446;SDS011;9862;49.462;11.054;2023-02-01T02:18:30;8.07;;;4.47;;
19446;SDS011;9862;49.462;11.054;2023-02-01T02:21:10;5.18;;;4.00;;
19446;SDS011;9862;49.462;11.054;2023-02-01T02:26:52;7.60;;;3.90;;
19446;SDS011;9862;49.462;11.054;2023-02-01T02:29:45;5.30;;;4.13;;
19446;SDS011;9862;49.462;11.054;2023-02-01T02:32:34;6.13;;;4.15;;
19446;SDS011;9862;49.462;11.054;2023-02-01T02:35:26;5.35;;;3.78;;
19446;SDS011;9862;49.462;11.054;2023-02-01T02:38:00;6.38;;;3.85;;
19446;SDS011;9862;49.462;11.054;2023-02-01T02:40:32;7.28;;;4.32;;
19446;SDS011;9862;49.462;11.054;2023-02-01T02:43:09;5.32;;;4.18;;
19446;SDS011;9862;49.462;11.054;2023-02-01T02:46:15;6.40;;;4.82;;
19446;SDS011;9862;49.462;11.054;2023-02-01T02:49:05;9.98;;;5.47;;
19446;SDS011;9862;49.462;11.054;2023-02-01T02:51:40;12.20;;;5.07;;
19446;SDS011;9862;49.462;11.054;2023-02-01T02:54:28;11.15;;;5.13;;
19446;SDS011;9862;49.462;11.054;2023-02-01T02:57:13;6.97;;;5.50;;
19446;SDS011;9862;49.462;11.054;2023-02-01T03:00:00;7.88;;;5.25;;
19446;SDS011;9862;49.462;11.054;2023-02-01T03:02:48;6.47;;;4.55;;
19446;SDS011;9862;49.462;11.054;2023-02-01T03:05:33;6.93;;;5.05;;
19446;SDS011;9862;49.462;11.054;2023-02-01T03:08:03;9.48;;;5.85;;
19446;SDS011;9862;49.462;11.054;2023-02-01T03:10:40;8.10;;;5.20;;
19446;SDS011;9862;49.462;11.054;2023-02-01T03:13:14;8.25;;;5.22;;
19446;SDS011;9862;49.462;11.054;2023-02-01T03:15:49;7.53;;;5.38;;
19446;SDS011;9862;49.462;11.054;2023-02-01T03:18:24;9.77;;;5.60;;
19446;SDS011;9862;49.462;11.054;2023-02-01T03:20:56;6.25;;;4.75;;
19446;SDS011;9862;49.462;11.054;2023-02-01T03:23:30;9.13;;;5.10;;
19446;SDS011;9862;49.462;11.054;2023-02-01T03:26:02;9.88;;;5.50;;
19446;SDS011;9862;49.462;11.054;2023-02-01T03:28:32;10.70;;;5.72;;
19446;SDS011;9862;49.462;11.054;2023-02-01T03:31:01;7.97;;;5.40;;
19446;SDS011;9862;49.462;11.054;2023-02-01T03:33:28;8.38;;;5.55;;
19446;SDS011;9862;49.462;11.054;2023-02-01T03:35:58;10.75;;;5.70;;
19446;SDS011;9862;49.462;11.054;2023-02-01T03:38:33;8.13;;;5.43;;
19446;SDS011;9862;49.462;11.054;2023-02-01T03:41:08;9.00;;;6.53;;
19446;SDS011;9862;49.462;11.054;2023-02-01T03:43:41;12.95;;;6.53;;
19446;SDS011;9862;49.462;11.054;2023-02-01T03:46:15;10.10;;;6.07;;
19446;SDS011;9862;49.462;11.054;2023-02-01T03:48:46;8.70;;;6.03;;
19446;SDS011;9862;49.462;11.054;2023-02-01T03:51:15;10.18;;;6.32;;
19446;SDS011;9862;49.462;11.054;2023-02-01T03:53:45;11.70;;;6.88;;
19446;SDS011;9862;49.462;11.054;2023-02-01T03:56:14;9.65;;;6.68;;
19446;SDS011;9862;49.462;11.054;2023-02-01T03:58:42;10.73;;;5.70;;
19446;SDS011;9862;49.462;11.054;2023-02-01T04:01:22;11.40;;;6.60;;
19446;SDS011;9862;49.462;11.054;2023-02-01T04:03:49;9.95;;;6.38;;
19446;SDS011;9862;49.462;11.054;2023-02-01T04:06:16;10.00;;;6.45;;
19446;SDS011;9862;49.462;11.054;2023-02-01T04:08:44;11.77;;;7.15;;
19446;SDS011;9862;49.462;11.054;2023-02-01T04:11:11;9.02;;;5.55;;
19446;SDS011;9862;49.462;11.054;2023-02-01T04:13:37;9.38;;;5.53;;
19446;SDS011;9862;49.462;11.054;2023-02-01T04:16:05;8.70;;;5.80;;
19446;SDS011;9862;49.462;11.054;2023-02-01T04:18:32;9.88;;;6.50;;
19446;SDS011;9862;49.462;11.054;2023-02-01T04:20:58;10.70;;;5.95;;
19446;SDS011;9862;49.462;11.054;2023-02-01T04:23:26;11.52;;;6.28;;
19446;SDS011;9862;49.462;11.054;2023-02-01T04:25:54;10.20;;;5.68;;
19446;SDS011;9862;49.462;11.054;2023-02-01T04:28:25;8.80;;;6.10;;
19446;SDS011;9862;49.462;11.054;2023-02-01T04:30:52;9.45;;;6.30;;
19446;SDS011;9862;49.462;11.054;2023-02-01T04:33:19;10.27;;;5.70;;
19446;SDS011;9862;49.462;11.054;2023-02-01T04:35:45;10.18;;;5.78;;
19446;SDS011;9862;49.462;11.054;2023-02-01T04:38:12;9.52;;;6.70;;
19446;SDS011;9862;49.462;11.054;2023-02-01T04:40:38;8.43;;;5.93;;
19446;SDS011;9862;49.462;11.054;2023-02-01T04:43:06;16.52;;;6.13;;
19446;SDS011;9862;49.462;11.054;2023-02-01T04:45:33;11.35;;;6.50;;
19446;SDS011;9862;49.462;11.054;2023-02-01T04:47:59;8.95;;;6.20;;
19446;SDS011;9862;49.462;11.054;2023-02-01T04:50:26;9.90;;;5.82;;
19446;SDS011;9862;49.462;11.054;2023-02-01T04:52:53;12.27;;;6.85;;
19446;SDS011;9862;49.462;11.054;2023-02-01T04:55:19;11.65;;;6.57;;
19446;SDS011;9862;49.462;11.054;2023-02-01T04:57:46;10.05;;;6.45;;
19446;SDS011;9862;49.462;11.054;2023-02-01T05:00:14;9.90;;;5.70;;
19446;SDS011;9862;49.462;11.054;2023-02-01T05:02:41;9.90;;;6.18;;
19446;SDS011;9862;49.462;11.054;2023-02-01T05:05:08;9.98;;;6.30;;
19446;SDS011;9862;49.462;11.054;2023-02-01T05:07:35;7.18;;;5.63;;
19446;SDS011;9862;49.462;11.054;2023-02-01T05:10:02;9.88;;;6.15;;
19446;SDS011;9862;49.462;11.054;2023-02-01T05:12:29;11.07;;;5.97;;
19446;SDS011;9862;49.462;11.054;2023-02-01T05:15:14;10.63;;;5.85;;
19446;SDS011;9862;49.462;11.054;2023-02-01T05:17:41;9.35;;;6.00;;
19446;SDS011;9862;49.462;11.054;2023-02-01T05:20:08;10.80;;;6.00;;
19446;SDS011;9862;49.462;11.054;2023-02-01T05:22:35;8.25;;;6.57;;
19446;SDS011;9862;49.462;11.054;2023-02-01T05:25:02;9.65;;;6.28;;
19446;SDS011;9862;49.462;11.054;2023-02-01T05:27:28;9.32;;;6.00;;
19446;SDS011;9862;49.462;11.054;2023-02-01T05:29:55;9.23;;;6.03;;
19446;SDS011;9862;49.462;11.054;2023-02-01T05:32:23;14.45;;;7.00;;
19446;SDS011;9862;49.462;11.054;2023-02-01T05:34:50;10.23;;;6.30;;
19446;SDS011;9862;49.462;11.054;2023-02-01T05:37:16;9.80;;;6.10;;
19446;SDS011;9862;49.462;11.054;2023-02-01T05:39:43;9.65;;;6.15;;
19446;SDS011;9862;49.462;11.054;2023-02-01T05:42:10;10.20;;;6.35;;
19446;SDS011;9862;49.462;11.054;2023-02-01T05:44:36;8.52;;;5.75;;
19446;SDS011;9862;49.462;11.054;2023-02-01T05:47:03;9.73;;;5.95;;
19446;SDS011;9862;49.462;11.054;2023-02-01T05:49:31;10.45;;;5.28;;
19446;SDS011;9862;49.462;11.054;2023-02-01T05:51:58;8.00;;;5.30;;
19446;SDS011;9862;49.462;11.054;2023-02-01T05:54:24;8.32;;;5.43;;
19446;SDS011;9862;49.462;11.054;2023-02-01T05:56:51;5.72;;;4.65;;
19446;SDS011;9862;49.462;11.054;2023-02-01T05:59:17;12.70;;;5.05;;
19446;SDS011;9862;49.462;11.054;2023-02-01T06:01:44;11.00;;;5.63;;
19446;SDS011;9862;49.462;11.054;2023-02-01T06:04:11;8.15;;;4.18;;
19446;SDS011;9862;49.462;11.054;2023-02-01T06:06:39;7.18;;;3.67;;
19446;SDS011;9862;49.462;11.054;2023-02-01T06:09:05;7.28;;;4.07;;
19446;SDS011;9862;49.462;11.054;2023-02-01T06:11:32;5.40;;;2.58;;
19446;SDS011;9862;49.462;11.054;2023-02-01T06:13:59;5.47;;;2.80;;
19446;SDS011;9862;49.462;11.054;2023-02-01T06:16:27;6.30;;;3.40;;
19446;SDS011;9862;49.462;11.054;2023-02-01T06:18:53;5.15;;;2.47;;
19446;SDS011;9862;49.462;11.054;2023-02-01T06:21:20;3.50;;;2.60;;
19446;SDS011;9862;49.462;11.054;2023-02-01T06:23:50;4.80;;;3.05;;
19446;SDS011;9862;49.462;11.054;2023-02-01T06:26:17;4.30;;;3.00;;
19446;SDS011;9862;49.462;11.054;2023-02-01T06:28:44;6.20;;;3.65;;
19446;SDS011;9862;49.462;11.054;2023-02-01T06:31:10;7.35;;;3.80;;
19446;SDS011;9862;49.462;11.054;2023-02-01T06:33:37;11.05;;;3.72;;
19446;SDS011;9862;49.462;11.054;2023-02-01T06:36:06;5.80;;;3.20;;
19446;SDS011;9862;49.462;11.054;2023-02-01T06:38:34;6.53;;;3.58;;
19446;SDS011;9862;49.462;11.054;2023-02-01T06:41:03;6.35;;;3.10;;
19446;SDS011;9862;49.462;11.054;2023-02-01T06:43:30;4.80;;;2.58;;
19446;SDS011;9862;49.462;11.054;2023-02-01T06:45:59;5.93;;;2.30;;
19446;SDS011;9862;49.462;11.054;2023-02-01T06:48:26;7.15;;;3.22;;
19446;SDS011;9862;49.462;11.054;2023-02-01T06:50:53;5.22;;;2.92;;
19446;SDS011;9862;49.462;11.054;2023-02-01T06:53:19;3.47;;;2.97;;
19446;SDS011;9862;49.462;11.054;2023-02-01T06:55:52;2.70;;;2.50;;
19446;SDS011;9862;49.462;11.054;2023-02-01T06:58:21;3.78;;;2.63;;
19446;SDS011;9862;49.462;11.054;2023-02-01T07:00:47;4.60;;;3.53;;
19446;SDS011;9862;49.462;11.054;2023-02-01T07:03:14;3.70;;;2.70;;
19446;SDS011;9862;49.462;11.054;2023-02-01T07:05:41;3.65;;;2.33;;
19446;SDS011;9862;49.462;11.054;2023-02-01T07:08:07;2.97;;;2.40;;
19446;SDS011;9862;49.462;11.054;2023-02-01T07:10:34;5.63;;;2.70;;
19446;SDS011;9862;49.462;11.054;2023-02-01T07:13:01;4.43;;;2.63;;
19446;SDS011;9862;49.462;11.054;2023-02-01T07:15:29;4.05;;;2.80;;
19446;SDS011;9862;49.462;11.054;2023-02-01T07:17:55;3.40;;;2.40;;
19446;SDS011;9862;49.462;11.054;2023-02-01T07:20:22;6.13;;;2.70;;
19446;SDS011;9862;49.462;11.054;2023-02-01T07:22:53;2.88;;;2.40;;
19446;SDS011;9862;49.462;11.054;2023-02-01T07:25:21;8.45;;;2.83;;
19446;SDS011;9862;49.462;11.054;2023-02-01T07:27:47;3.78;;;2.90;;
19446;SDS011;9862;49.462;11.054;2023-02-01T07:30:14;6.82;;;2.60;;
19446;SDS011;9862;49.462;11.054;2023-02-01T07:32:42;5.50;;;2.67;;
19446;SDS011;9862;49.462;11.054;2023-02-01T07:35:09;3.83;;;2.83;;
19446;SDS011;9862;49.462;11.054;2023-02-01T07:37:35;5.65;;;2.88;;
19446;SDS011;9862;49.462;11.054;2023-02-01T07:40:02;4.55;;;2.88;;
19446;SDS011;9862;49.462;11.054;2023-02-01T07:42:29;7.05;;;3.60;;
19446;SDS011;9862;49.462;11.054;2023-02-01T07:44:56;8.82;;;3.38;;
19446;SDS011;9862;49.462;11.054;2023-02-01T07:47:23;5.38;;;3.80;;
19446;SDS011;9862;49.462;11.054;2023-02-01T07:49:51;6.50;;;3.95;;
19446;SDS011;9862;49.462;11.054;2023-02-01T07:52:17;6.25;;;4.47;;
19446;SDS011;9862;49.462;11.054;2023-02-01T07:54:44;4.25;;;3.33;;
19446;SDS011;9862;49.462;11.054;2023-02-01T07:57:11;5.32;;;3.30;;
19446;SDS011;9862;49.462;11.054;2023-02-01T07:59:38;4.97;;;2.90;;
19446;SDS011;9862;49.462;11.054;2023-02-01T08:02:25;6.10;;;2.85;;
19446;SDS011;9862;49.462;11.054;2023-02-01T08:04:52;3.20;;;2.50;;
19446;SDS011;9862;49.462;11.054;2023-02-01T08:07:18;6.82;;;3.20;;
19446;SDS011;9862;49.462;11.054;2023-02-01T08:09:44;6.47;;;3.13;;
19446;SDS011;9862;49.462;11.054;2023-02-01T08:12:11;3.90;;;2.60;;
19446;SDS011;9862;49.462;11.054;2023-02-01T08:14:37;8.85;;;2.70;;
19446;SDS011;9862;49.462;11.054;2023-02-01T08:17:06;5.68;;;2.45;;
19446;SDS011;9862;49.462;11.054;2023-02-01T08:19:32;5.30;;;3.08;;
19446;SDS011;9862;49.462;11.054;2023-02-01T08:22:00;5.63;;;2.40;;
19446;SDS011;9862;49.462;11.054;2023-02-01T08:24:31;9.20;;;2.50;;
19446;SDS011;9862;49.462;11.054;2023-02-01T08:26:59;4.45;;;2.78;;
19446;SDS011;9862;49.462;11.054;2023-02-01T08:29:27;3.75;;;2.70;;
19446;SDS011;9862;49.462;11.054;2023-02-01T08:31:53;7.20;;;2.60;;
19446;SDS011;9862;49.462;11.054;2023-02-01T08:34:20;5.20;;;2.58;;
19446;SDS011;9862;49.462;11.054;2023-02-01T08:36:46;2.42;;;2.20;;
19446;SDS011;9862;49.462;11.054;2023-02-01T08:39:14;6.35;;;2.70;;
19446;SDS011;9862;49.462;11.054;2023-02-01T08:41:41;8.23;;;2.50;;
19446;SDS011;9862;49.462;11.054;2023-02-01T08:44:28;4.38;;;2.17;;
19446;SDS011;9862;49.462;11.054;2023-02-01T08:46:54;4.75;;;2.88;;
19446;SDS011;9862;49.462;11.054;2023-02-01T08:49:21;4.07;;;2.38;;
19446;SDS011;9862;49.462;11.054;2023-02-01T08:51:47;2.17;;;1.90;;
19446;SDS011;9862;49.462;11.054;2023-02-01T08:54:15;7.25;;;2.63;;
19446;SDS011;9862;49.462;11.054;2023-02-01T08:56:42;5.47;;;2.45;;
19446;SDS011;9862;49.462;11.054;2023-02-01T08:59:08;5.07;;;2.30;;
19446;SDS011;9862;49.462;11.054;2023-02-01T09:01:35;6.35;;;2.30;;
19446;SDS011;9862;49.462;11.054;2023-02-01T09:04:01;5.25;;;2.42;;
19446;SDS011;9862;49.462;11.054;2023-02-01T09:06:28;6.13;;;2.53;;
19446;SDS011;9862;49.462;11.054;2023-02-01T09:08:55;7.78;;;2.65;;
19446;SDS011;9862;49.462;11.054;2023-02-01T09:11:23;8.07;;;2.70;;
19446;SDS011;9862;49.462;11.054;2023-02-01T09:13:50;4.38;;;2.60;;
19446;SDS011;9862;49.462;11.054;2023-02-01T09:16:17;6.60;;;2.95;;
19446;SDS011;9862;49.462;11.054;2023-02-01T09:18:44;7.45;;;2.65;;
19446;SDS011;9862;49.462;11.054;2023-02-01T09:21:11;3.05;;;2.45;;
19446;SDS011;9862;49.462;11.054;2023-02-01T09:23:37;4.78;;;2.13;;
19446;SDS011;9862;49.462;11.054;2023-02-01T09:26:04;4.90;;;2.47;;
19446;SDS011;9862;49.462;11.054;2023-02-01T09:28:33;5.90;;;1.90;;
19446;SDS011;9862;49.462;11.054;2023-02-01T09:31:00;2.75;;;1.33;;
19446;SDS011;9862;49.462;11.054;2023-02-01T09:33:27;5.90;;;2.00;;
19446;SDS011;9862;49.462;11.054;2023-02-01T09:35:55;2.60;;;1.48;;
19446;SDS011;9862;49.462;11.054;2023-02-01T09:38:22;8.13;;;1.77;;
19446;SDS011;9862;49.462;11.054;2023-02-01T09:40:51;4.93;;;1.45;;
19446;SDS011;9862;49.462;11.054;2023-02-01T09:43:20;5.50;;;1.50;;
19446;SDS011;9862;49.462;11.054;2023-02-01T09:45:59;11.00;;;2.55;;
19446;SDS011;9862;49.462;11.054;2023-02-01T09:48:37;4.28;;;1.38;;
19446;SDS011;9862;49.462;11.054;2023-02-01T09:51:11;5.63;;;1.52;;
19446;SDS011;9862;49.462;11.054;2023-02-01T09:53:41;6.32;;;1.67;;
19446;SDS011;9862;49.462;11.054;2023-02-01T09:56:11;5.47;;;1.60;;
19446;SDS011;9862;49.462;11.054;2023-02-01T09:58:41;5.85;;;1.65;;
19446;SDS011;9862;49.462;11.054;2023-02-01T10:01:14;6.65;;;1.95;;
19446;SDS011;9862;49.462;11.054;2023-02-01T10:03:44;6.18;;;1.80;;
19446;SDS011;9862;49.462;11.054;2023-02-01T10:09:12;5.07;;;1.80;;
19446;SDS011;9862;49.462;11.054;2023-02-01T10:11:49;4.10;;;1.40;;
19446;SDS011;9862;49.462;11.054;2023-02-01T10:14:36;4.47;;;1.88;;
19446;SDS011;9862;49.462;11.054;2023-02-01T10:17:19;5.47;;;2.25;;
19446;SDS011;9862;49.462;11.054;2023-02-01T10:19:58;5.72;;;2.38;;
19446;SDS011;9862;49.462;11.054;2023-02-01T10:22:34;5.55;;;2.28;;
19446;SDS011;9862;49.462;11.054;2023-02-01T10:25:08;11.63;;;3.70;;
19446;SDS011;9862;49.462;11.054;2023-02-01T10:27:40;7.78;;;3.50;;
19446;SDS011;9862;49.462;11.054;2023-02-01T10:30:13;9.20;;;3.88;;
19446;SDS011;9862;49.462;11.054;2023-02-01T10:32:45;11.95;;;3.70;;
19446;SDS011;9862;49.462;11.054;2023-02-01T10:35:14;7.00;;;3.83;;
19446;SDS011;9862;49.462;11.054;2023-02-01T10:37:44;15.20;;;3.33;;
19446;SDS011;9862;49.462;11.054;2023-02-01T10:40:14;12.77;;;3.53;;
19446;SDS011;9862;49.462;11.054;2023-02-01T10:42:43;7.78;;;3.53;;
19446;SDS011;9862;49.462;11.054;2023-02-01T10:45:12;9.93;;;3.63;;
19446;SDS011;9862;49.462;11.054;2023-02-01T10:47:45;8.13;;;3.47;;
19446;SDS011;9862;49.462;11.054;2023-02-01T10:50:15;13.48;;;3.67;;
19446;SDS011;9862;49.462;11.054;2023-02-01T10:52:47;5.78;;;3.25;;
19446;SDS011;9862;49.462;11.054;2023-02-01T10:55:29;12.38;;;4.28;;
19446;SDS011;9862;49.462;11.054;2023-02-01T10:58:00;10.48;;;5.28;;
19446;SDS011;9862;49.462;11.054;2023-02-01T11:00:28;11.57;;;3.90;;
19446;SDS011;9862;49.462;11.054;2023-02-01T11:03:01;8.07;;;3.75;;
19446;SDS011;9862;49.462;11.054;2023-02-01T11:05:47;8.13;;;3.70;;
19446;SDS011;9862;49.462;11.054;2023-02-01T11:08:14;8.15;;;2.85;;
19446;SDS011;9862;49.462;11.054;2023-02-01T11:10:44;9.73;;;3.53;;
19446;SDS011;9862;49.462;11.054;2023-02-01T11:13:12;9.80;;;3.20;;
19446;SDS011;9862;49.462;11.054;2023-02-01T11:15:43;13.13;;;3.70;;
19446;SDS011;9862;49.462;11.054;2023-02-01T11:18:16;9.88;;;3.42;;
19446;SDS011;9862;49.462;11.054;2023-02-01T11:20:45;11.95;;;3.28;;
19446;SDS011;9862;49.462;11.054;2023-02-01T11:23:15;7.63;;;2.78;;
19446;SDS011;9862;49.462;11.054;2023-02-01T11:25:47;9.00;;;2.90;;
19446;SDS011;9862;49.462;11.054;2023-02-01T11:28:15;7.57;;;2.78;;
19446;SDS011;9862;49.462;11.054;2023-02-01T11:30:43;7.40;;;2.50;;
19446;SDS011;9862;49.462;11.054;2023-02-01T11:33:14;5.38;;;2.75;;
19446;SDS011;9862;49.462;11.054;2023-02-01T11:35:44;7.55;;;2.70;;
19446;SDS011;9862;49.462;11.054;2023-02-01T11:38:18;10.27;;;3.60;;
19446;SDS011;9862;49.462;11.054;2023-02-01T11:40:47;7.88;;;2.75;;
19446;SDS011;9862;49.462;11.054;2023-02-01T11:43:16;16.50;;;2.80;;
19446;SDS011;9862;49.462;11.054;2023-02-01T11:45:56;11.07;;;2.38;;
19446;SDS011;9862;49.462;11.054;2023-02-01T11:48:26;11.20;;;2.90;;
19446;SDS011;9862;49.462;11.054;2023-02-01T11:50:58;6.20;;;2.40;;
19446;SDS011;9862;49.462;11.054;2023-02-01T11:53:39;6.45;;;2.55;;
19446;SDS011;9862;49.462;11.054;2023-02-01T11:56:19;5.57;;;3.25;;
19446;SDS011;9862;49.462;11.054;2023-02-01T11:58:57;4.80;;;2.70;;
19446;SDS011;9862;49.462;11.054;2023-02-01T12:01:46;11.38;;;3.72;;
19446;SDS011;9862;49.462;11.054;2023-02-01T12:07:35;10.25;;;3.47;;
19446;SDS011;9862;49.462;11.054;2023-02-01T12:10:28;7.93;;;2.97;;
19446;SDS011;9862;49.462;11.054;2023-02-01T12:13:07;9.63;;;2.95;;
19446;SDS011;9862;49.462;11.054;2023-02-01T12:15:46;6.82;;;3.10;;
19446;SDS011;9862;49.462;11.054;2023-02-01T12:18:30;6.68;;;2.38;;
19446;SDS011;9862;49.462;11.054;2023-02-01T12:21:17;8.57;;;2.33;;
19446;SDS011;9862;49.462;11.054;2023-02-01T12:23:58;9.55;;;3.08;;
19446;SDS011;9862;49.462;11.054;2023-02-01T12:26:43;7.50;;;2.80;;
19446;SDS011;9862;49.462;11.054;2023-02-01T12:32:24;9.73;;;3.58;;
19446;SDS011;9862;49.462;11.054;2023-02-01T12:38:04;14.30;;;4.80;;
19446;SDS011;9862;49.462;11.054;2023-02-01T12:40:48;13.45;;;3.92;;
19446;SDS011;9862;49.462;11.054;2023-02-01T12:43:31;6.18;;;2.65;;
19446;SDS011;9862;49.462;11.054;2023-02-01T12:46:05;5.97;;;2.30;;
19446;SDS011;9862;49.462;11.054;2023-02-01T12:48:40;9.07;;;2.47;;
19446;SDS011;9862;49.462;11.054;2023-02-01T12:51:13;7.97;;;3.58;;
19446;SDS011;9862;49.462;11.054;2023-02-01T12:53:45;7.72;;;2.60;;
19446;SDS011;9862;49.462;11.054;2023-02-01T12:56:21;7.05;;;2.38;;
19446;SDS011;9862;49.462;11.054;2023-02-01T12:58:50;5.55;;;2.40;;
19446;SDS011;9862;49.462;11.054;2023-02-01T13:01:20;7.47;;;2.38;;
19446;SDS011;9862;49.462;11.054;2023-02-01T13:03:54;12.45;;;3.05;;
19446;SDS011;9862;49.462;11.054;2023-02-01T13:06:26;7.18;;;2.75;;
19446;SDS011;9862;49.462;11.054;2023-02-01T13:08:59;7.70;;;2.70;;
19446;SDS011;9862;49.462;11.054;2023-02-01T13:11:31;8.60;;;3.13;;
19446;SDS011;9862;49.462;11.054;2023-02-01T13:14:01;10.60;;;2.67;;
19446;SDS011;9862;49.462;11.054;2023-02-01T13:16:30;9.60;;;3.10;;
19446;SDS011;9862;49.462;11.054;2023-02-01T13:19:00;10.35;;;3.47;;
19446;SDS011;9862;49.462;11.054;2023-02-01T13:21:34;7.90;;;2.88;;
19446;SDS011;9862;49.462;11.054;2023-02-01T13:24:07;7.97;;;2.90;;
19446;SDS011;9862;49.462;11.054;2023-02-01T13:26:49;11.68;;;3.40;;
19446;SDS011;9862;49.462;11.054;2023-02-01T13:29:18;12.85;;;2.80;;
19446;SDS011;9862;49.462;11.054;2023-02-01T13:38:03;6.90;;;2.60;;
19446;SDS011;9862;49.462;11.054;2023-02-01T13:40:44;8.60;;;2.22;;
19446;SDS011;9862;49.462;11.054;2023-02-01T13:43:14;7.53;;;2.60;;
19446;SDS011;9862;49.462;11.054;2023-02-01T13:45:46;5.60;;;1.85;;
19446;SDS011;9862;49.462;11.054;2023-02-01T13:48:18;7.95;;;2.28;;
19446;SDS011;9862;49.462;11.054;2023-02-01T13:50:50;10.48;;;2.42;;
19446;SDS011;9862;49.462;11.054;2023-02-01T13:53:20;8.48;;;2.63;;
19446;SDS011;9862;49.462;11.054;2023-02-01T13:55:56;9.35;;;3.20;;
19446;SDS011;9862;49.462;11.054;2023-02-01T13:58:29;10.35;;;2.63;;
19446;SDS011;9862;49.462;11.054;2023-02-01T14:04:00;8.35;;;2.67;;
19446;SDS011;9862;49.462;11.054;2023-02-01T14:06:35;9.48;;;2.92;;
19446;SDS011;9862;49.462;11.054;2023-02-01T14:09:16;13.20;;;2.72;;
19446;SDS011;9862;49.462;11.054;2023-02-01T14:11:46;8.63;;;2.25;;
19446;SDS011;9862;49.462;11.054;2023-02-01T14:23:15;13.75;;;2.13;;
19446;SDS011;9862;49.462;11.054;2023-02-01T14:25:44;10.70;;;2.70;;
19446;SDS011;9862;49.462;11.054;2023-02-01T14:28:16;7.60;;;2.25;;
19446;SDS011;9862;49.462;11.054;2023-02-01T14:30:49;6.88;;;2.53;;
19446;SDS011;9862;49.462;11.054;2023-02-01T14:33:20;7.60;;;2.65;;
19446;SDS011;9862;49.462;11.054;2023-02-01T14:36:00;8.60;;;2.55;;
19446;SDS011;9862;49.462;11.054;2023-02-01T14:38:30;6.90;;;2.30;;
19446;SDS011;9862;49.462;11.054;2023-02-01T14:41:17;6.53;;;2.33;;
19446;SDS011;9862;49.462;11.054;2023-02-01T14:52:46;15.60;;;3.03;;
19446;SDS011;9862;49.462;11.054;2023-02-01T14:55:16;6.30;;;2.60;;
19446;SDS011;9862;49.462;11.054;2023-02-01T14:57:48;8.55;;;2.42;;
19446;SDS011;9862;49.462;11.054;2023-02-01T15:00:22;13.05;;;2.60;;
19446;SDS011;9862;49.462;11.054;2023-02-01T15:02:50;8.48;;;2.58;;
19446;SDS011;9862;49.462;11.054;2023-02-01T15:05:26;7.78;;;2.78;;
19446;SDS011;9862;49.462;11.054;2023-02-01T15:08:02;7.47;;;2.08;;
19446;SDS011;9862;49.462;11.054;2023-02-01T15:10:44;7.63;;;3.25;;
19446;SDS011;9862;49.462;11.054;2023-02-01T15:13:18;6.72;;;2.47;;
19446;SDS011;9862;49.462;11.054;2023-02-01T15:16:00;12.35;;;3.90;;
19446;SDS011;9862;49.462;11.054;2023-02-01T15:18:28;10.55;;;3.40;;
19446;SDS011;9862;49.462;11.054;2023-02-01T15:20:56;10.10;;;3.53;;
19446;SDS011;9862;49.462;11.054;2023-02-01T15:23:23;7.93;;;2.60;;
19446;SDS011;9862;49.462;11.054;2023-02-01T15:25:50;9.07;;;3.38;;
19446;SDS011;9862;49.462;11.054;2023-02-01T15:28:16;9.15;;;3.60;;
19446;SDS011;9862;49.462;11.054;2023-02-01T15:30:51;10.10;;;3.28;;
19446;SDS011;9862;49.462;11.054;2023-02-01T15:33:21;11.80;;;3.63;;
19446;SDS011;9862;49.462;11.054;2023-02-01T15:35:49;15.57;;;2.78;;
19446;SDS011;9862;49.462;11.054;2023-02-01T15:41:06;12.07;;;3.60;;
19446;SDS011;9862;49.462;11.054;2023-02-01T15:43:36;5.32;;;2.72;;
19446;SDS011;9862;49.462;11.054;2023-02-01T15:46:07;8.13;;;2.30;;
19446;SDS011;9862;49.462;11.054;2023-02-01T15:48:39;16.27;;;2.88;;
19446;SDS011;9862;49.462;11.054;2023-02-01T15:51:13;14.27;;;2.63;;
19446;SDS011;9862;49.462;11.054;2023-02-01T15:53:44;9.10;;;2.40;;